Time;durP1;ratioP1;P1;durP2;ratioP2;P2;SDS_P1;SDS_P2;PMS_P1;PMS_P2;Temp;Humidity;BMP_temperature;BMP_pressure;BME280_temperature;BME280_humidity;BME280_pressure;Samples;Min_cycle;Max_cycle;Signal;HPM_P1;HPM_P2
2021/04/07 00:00:00;;;;;;;1.65;0.93;;;4.70;73.70;;;;;;5072345;28;20058;-63
2021/04/07 00:02:25;;;;;;;8.82;2.10;;;4.60;73.90;;;;;;5072868;28;20472;-63
2021/04/07 00:05:01;;;;;;;13.07;1.88;;;4.60;74.00;;;;;;5073084;28;20043;-63
2021/04/07 00:07:27;;;;;;;2.42;1.60;;;4.60;74.30;;;;;;5054242;28;20028;-63
2021/04/07 00:09:52;;;;;;;9.05;1.95;;;4.50;74.60;;;;;;5072920;28;20035;-63
2021/04/07 00:12:19;;;;;;;3.95;1.70;;;4.40;75.00;;;;;;5072856;28;20029;-63
2021/04/07 00:14:45;;;;;;;2.28;1.30;;;4.30;75.50;;;;;;5072198;28;20052;-63
2021/04/07 00:17:17;;;;;;;5.65;1.65;;;4.30;76.00;;;;;;5072828;28;20017;-62
2021/04/07 00:19:42;;;;;;;2.67;1.65;;;4.20;76.30;;;;;;5073121;28;20075;-63
2021/04/07 00:22:08;;;;;;;1.45;1.00;;;4.20;76.50;;;;;;5072204;28;20037;-62
2021/04/07 00:24:33;;;;;;;1.27;0.98;;;4.20;76.60;;;;;;5072767;28;20040;-63
2021/04/07 00:27:06;;;;;;;6.70;1.50;;;4.20;76.70;;;;;;5072752;28;20028;-62
2021/04/07 00:29:31;;;;;;;6.95;1.88;;;4.20;76.80;;;;;;5053772;28;20066;-63
2021/04/07 00:31:57;;;;;;;12.65;1.55;;;4.20;76.70;;;;;;5072583;28;20032;-62
2021/04/07 00:34:23;;;;;;;2.53;1.15;;;4.20;76.70;;;;;;5072592;28;20033;-63
2021/04/07 00:36:48;;;;;;;7.03;1.75;;;4.20;76.70;;;;;;5071760;28;20029;-62
2021/04/07 00:39:14;;;;;;;4.15;1.50;;;4.20;76.70;;;;;;5072556;28;20036;-63
2021/04/07 00:41:39;;;;;;;6.45;1.80;;;4.20;76.70;;;;;;5072391;28;20082;-63
2021/04/07 00:44:05;;;;;;;6.30;1.90;;;4.20;76.70;;;;;;5071815;28;20028;-62
2021/04/07 00:46:35;;;;;;;13.07;2.42;;;4.20;76.70;;;;;;5072535;28;20029;-63
2021/04/07 00:49:01;;;;;;;3.33;1.58;;;4.10;76.60;;;;;;5072139;28;20040;-63
2021/04/07 00:51:28;;;;;;;10.05;1.95;;;4.20;76.70;;;;;;5072032;28;20040;-63
2021/04/07 00:53:54;;;;;;;5.90;1.50;;;4.10;76.60;;;;;;5072272;28;20082;-63
2021/04/07 00:56:28;;;;;;;6.53;1.80;;;4.20;76.70;;;;;;5071607;28;20048;-62
2021/04/07 00:58:54;;;;;;;7.07;1.40;;;4.10;76.70;;;;;;5072361;28;20102;-62
2021/04/07 01:01:20;;;;;;;11.43;1.95;;;4.10;76.90;;;;;;5074453;28;20418;-62
2021/04/07 01:03:45;;;;;;;7.68;1.77;;;4.00;76.90;;;;;;5075922;28;20426;-63
2021/04/07 01:06:11;;;;;;;3.03;1.70;;;4.00;77.20;;;;;;5076386;28;20023;-63
2021/04/07 01:08:40;;;;;;;4.25;2.05;;;3.90;77.30;;;;;;5076352;28;20498;-63
2021/04/07 01:11:06;;;;;;;11.38;1.60;;;3.90;77.70;;;;;;5075328;28;20475;-63
2021/04/07 01:13:31;;;;;;;4.00;1.83;;;3.80;77.90;;;;;;5076277;28;20054;-62
2021/04/07 01:15:57;;;;;;;4.57;1.63;;;3.80;78.10;;;;;;5075890;28;20062;-63
2021/04/07 01:18:24;;;;;;;7.97;1.50;;;3.80;78.20;;;;;;5075598;28;20208;-63
2021/04/07 01:20:50;;;;;;;2.58;1.30;;;3.80;78.30;;;;;;5076103;28;20107;-63
2021/04/07 01:23:16;;;;;;;3.38;1.25;;;3.90;78.30;;;;;;5076101;28;20099;-63
2021/04/07 01:25:41;;;;;;;3.25;1.15;;;3.90;78.20;;;;;;5075180;28;20035;-63
2021/04/07 01:28:10;;;;;;;3.70;1.35;;;3.90;78.20;;;;;;5075631;28;20042;-63
2021/04/07 01:30:48;;;;;;;5.80;1.10;;;3.90;78.10;;;;;;5075688;28;20086;-62
2021/04/07 01:33:24;;;;;;;5.45;1.15;;;3.90;78.00;;;;;;5075054;28;20056;-62
2021/04/07 01:35:51;;;;;;;9.38;1.50;;;3.90;78.00;;;;;;5076011;28;20090;-63
2021/04/07 01:38:18;;;;;;;3.28;1.75;;;4.00;78.00;;;;;;5075490;28;20159;-62
2021/04/07 01:40:45;;;;;;;2.53;1.20;;;4.00;78.00;;;;;;5074905;28;20036;-63
2021/04/07 01:43:16;;;;;;;8.23;1.77;;;4.00;78.80;;;;;;5075335;28;20040;-63
2021/04/07 01:45:45;;;;;;;4.88;1.50;;;4.00;78.20;;;;;;5074643;28;20098;-63
2021/04/07 01:48:17;;;;;;;3.17;1.33;;;4.00;78.20;;;;;;5075490;28;20031;-62
2021/04/07 01:50:48;;;;;;;5.13;1.77;;;3.90;78.30;;;;;;5075280;28;20066;-63
2021/04/07 01:53:16;;;;;;;8.50;2.10;;;3.90;78.40;;;;;;5074612;28;20044;-63
2021/04/07 01:55:42;;;;;;;2.88;1.50;;;3.90;78.60;;;;;;5075244;28;20107;-63
2021/04/07 01:58:08;;;;;;;3.97;1.50;;;3.90;78.80;;;;;;5075154;28;20108;-62
2021/04/07 02:00:36;;;;;;;5.50;1.52;;;3.90;79.00;;;;;;5074511;28;20472;-62
2021/04/07 02:03:03;;;;;;;5.75;1.52;;;3.90;79.20;;;;;;5075126;28;20418;-62
2021/04/07 02:05:30;;;;;;;4.20;1.20;;;3.80;79.40;;;;;;5075139;28;20032;-62
2021/04/07 02:07:56;;;;;;;6.18;1.63;;;3.80;79.60;;;;;;5070368;28;20024;-62
2021/04/07 02:10:24;;;;;;;5.18;1.67;;;3.80;79.80;;;;;;5075151;28;20047;-62
2021/04/07 02:12:57;;;;;;;6.85;1.33;;;3.70;80.00;;;;;;5074642;28;20021;-62
2021/04/07 02:15:24;;;;;;;5.37;1.70;;;3.70;80.30;;;;;;5072266;28;20137;-62
2021/04/07 02:17:50;;;;;;;3.45;1.40;;;3.70;80.50;;;;;;5074817;28;20474;-63
2021/04/07 02:20:17;;;;;;;3.95;1.10;;;3.70;81.30;;;;;;5074643;28;20556;-63
2021/04/07 02:22:44;;;;;;;6.25;1.40;;;3.70;80.90;;;;;;5069670;28;20463;-66
2021/04/07 02:25:11;;;;;;;4.28;1.23;;;3.70;81.20;;;;;;5074935;28;20507;-62
2021/04/07 02:27:38;;;;;;;3.70;1.48;;;3.60;81.30;;;;;;5074246;28;20032;-62
2021/04/07 02:30:06;;;;;;;2.78;1.08;;;3.60;81.40;;;;;;5074640;28;20525;-62
2021/04/07 02:32:32;;;;;;;2.63;1.23;;;3.70;81.60;;;;;;5074264;28;20032;-62
2021/04/07 02:34:58;;;;;;;5.68;1.50;;;3.70;81.70;;;;;;5073234;28;20025;-63
2021/04/07 02:37:24;;;;;;;6.05;1.10;;;3.70;81.70;;;;;;5074230;28;20386;-62
2021/04/07 02:39:49;;;;;;;3.58;1.27;;;3.70;81.70;;;;;;5073146;28;20040;-63
2021/04/07 02:42:18;;;;;;;6.03;1.70;;;3.70;81.70;;;;;;5073234;28;20029;-63
2021/04/07 02:44:43;;;;;;;1.65;1.23;;;3.70;81.70;;;;;;5071432;28;20537;-63
2021/04/07 02:47:09;;;;;;;2.05;1.35;;;3.70;81.70;;;;;;5073976;28;20032;-62
2021/04/07 02:49:35;;;;;;;4.28;0.88;;;3.70;81.70;;;;;;5067350;28;20044;-62
2021/04/07 02:52:01;;;;;;;1.45;0.93;;;3.70;82.30;;;;;;5064894;28;20196;-63
2021/04/07 02:54:27;;;;;;;2.53;0.73;;;3.70;81.70;;;;;;5073165;28;20434;-63
2021/04/07 02:56:53;;;;;;;0.80;0.80;;;3.70;81.70;;;;;;5073179;28;20047;-63
2021/04/07 02:59:19;;;;;;;0.73;0.73;;;3.70;81.70;;;;;;5073665;28;20403;-63
2021/04/07 03:01:44;;;;;;;1.80;0.88;;;3.70;81.70;;;;;;5073676;28;20029;-62
2021/04/07 03:04:10;;;;;;;0.88;0.60;;;3.80;82.20;;;;;;5072864;28;20027;-63
2021/04/07 03:06:36;;;;;;;3.05;0.80;;;3.80;81.50;;;;;;5068100;28;20037;-63
2021/04/07 03:09:03;;;;;;;1.30;0.80;;;3.80;81.40;;;;;;5070801;28;20032;-63
2021/04/07 03:11:28;;;;;;;2.10;0.75;;;3.80;81.40;;;;;;5072665;28;20062;-63
2021/04/07 03:13:55;;;;;;;0.60;0.60;;;3.80;81.30;;;;;;5073717;28;20384;-62
2021/04/07 03:16:21;;;;;;;0.93;0.93;;;3.80;81.40;;;;;;5073491;28;20021;-63
2021/04/07 03:18:46;;;;;;;0.73;0.70;;;3.80;81.30;;;;;;5073015;28;20063;-63
2021/04/07 03:21:12;;;;;;;0.75;0.75;;;3.80;81.30;;;;;;5073885;28;20024;-62
2021/04/07 03:23:38;;;;;;;1.83;1.00;;;3.90;81.30;;;;;;5072932;28;20024;-63
2021/04/07 03:26:04;;;;;;;0.90;0.82;;;3.90;81.30;;;;;;5073181;28;20036;-62
2021/04/07 03:28:29;;;;;;;0.82;0.77;;;3.90;81.20;;;;;;5073500;28;20453;-62
2021/04/07 03:30:55;;;;;;;1.20;0.90;;;3.90;81.10;;;;;;5072847;28;20032;-63
2021/04/07 03:33:29;;;;;;;0.82;0.82;;;3.90;81.10;;;;;;5073330;28;20033;-63
2021/04/07 03:35:56;;;;;;;;;;;4.00;81.10;;;;;;5074076;28;20055;-63
2021/04/07 03:38:22;;;;;;;1.33;0.98;;;3.90;81.10;;;;;;5054800;28;19915;-63
2021/04/07 03:40:48;;;;;;;0.88;0.80;;;4.00;81.20;;;;;;5073331;28;20024;-63
2021/04/07 03:43:16;;;;;;;1.38;1.05;;;3.90;81.30;;;;;;5073319;28;20035;-63
2021/04/07 03:45:46;;;;;;;1.30;0.98;;;3.90;81.50;;;;;;5054415;28;20408;-63
2021/04/07 03:48:13;;;;;;;0.82;0.82;;;3.90;81.50;;;;;;5073318;28;20032;-63
2021/04/07 03:50:40;;;;;;;4.28;1.15;;;3.90;81.60;;;;;;5072822;28;20424;-63
2021/04/07 03:53:07;;;;;;;1.00;1.00;;;3.90;81.70;;;;;;5072504;28;20426;-63
2021/04/07 03:55:33;;;;;;;0.75;0.75;;;3.90;81.80;;;;;;5072753;28;20033;-63
2021/04/07 03:57:59;;;;;;;3.30;1.15;;;3.90;81.90;;;;;;5073164;28;20059;-63
2021/04/07 04:00:25;;;;;;;3.05;1.35;;;3.90;81.90;;;;;;5072267;28;20028;-63
2021/04/07 04:02:51;;;;;;;2.97;0.90;;;3.90;81.90;;;;;;5072840;28;20029;-63
2021/04/07 04:05:16;;;;;;;2.05;1.13;;;3.90;81.90;;;;;;5073134;28;20037;-63
2021/04/07 04:07:43;;;;;;;1.08;1.08;;;3.90;81.90;;;;;;5071854;28;20472;-63
2021/04/07 04:10:09;;;;;;;2.15;1.60;;;3.90;81.80;;;;;;5073006;28;20041;-63
2021/04/07 04:12:35;;;;;;;1.88;1.00;;;4.00;82.40;;;;;;5072668;28;20036;-62
2021/04/07 04:15:00;;;;;;;1.33;0.70;;;4.00;81.70;;;;;;5071983;28;20028;-63
2021/04/07 04:17:26;;;;;;;1.55;1.05;;;4.00;81.60;;;;;;5073016;28;20028;-62
2021/04/07 04:19:52;;;;;;;0.50;0.50;;;4.00;81.50;;;;;;5072590;28;20032;-63
2021/04/07 04:22:18;;;;;;;1.48;1.05;;;4.10;81.40;;;;;;5071916;28;20033;-62
2021/04/07 04:24:46;;;;;;;1.40;0.70;;;4.10;81.30;;;;;;5072740;28;20080;-63
2021/04/07 04:27:12;;;;;;;0.65;0.65;;;4.10;81.20;;;;;;5058087;28;20154;-63
2021/04/07 04:29:38;;;;;;;1.00;0.68;;;4.10;81.20;;;;;;5072563;28;20516;-63
2021/04/07 04:32:04;;;;;;;1.15;1.00;;;4.10;81.20;;;;;;5072688;28;20023;-63
2021/04/07 04:34:30;;;;;;;0.60;0.60;;;4.10;81.10;;;;;;5071865;28;20712;-63
2021/04/07 04:36:55;;;;;;;0.75;0.75;;;4.10;81.70;;;;;;5072511;28;20028;-63
2021/04/07 04:39:21;;;;;;;0.50;0.50;;;4.20;81.20;;;;;;5072533;28;20072;-63
2021/04/07 04:41:47;;;;;;;0.63;0.63;;;4.10;81.00;;;;;;5071655;28;20035;-63
2021/04/07 04:44:12;;;;;;;1.20;0.85;;;4.20;81.00;;;;;;5072495;28;20060;-63
2021/04/07 04:46:41;;;;;;;0.75;0.75;;;4.20;80.90;;;;;;5072409;28;20028;-63
2021/04/07 04:49:06;;;;;;;0.60;0.60;;;4.20;80.90;;;;;;5071409;28;20132;-63
2021/04/07 04:51:35;;;;;;;0.77;0.77;;;4.20;80.90;;;;;;5061714;28;20024;-63
2021/04/07 04:54:00;;;;;;;3.28;0.93;;;4.20;80.90;;;;;;5069090;28;20040;-63
2021/04/07 04:56:26;;;;;;;4.55;1.00;;;4.20;80.90;;;;;;5071784;28;20039;-63
2021/04/07 04:58:52;;;;;;;2.85;0.82;;;4.20;80.90;;;;;;5072173;28;20020;-63
2021/04/07 05:01:17;;;;;;;2.42;0.95;;;4.20;80.90;;;;;;5072555;28;20475;-63
2021/04/07 05:03:43;;;;;;;0.63;0.63;;;4.20;80.90;;;;;;5071838;28;20120;-63
2021/04/07 05:06:09;;;;;;;0.57;0.57;;;4.20;80.90;;;;;;5072352;28;20726;-63
2021/04/07 05:08:34;;;;;;;0.50;0.50;;;4.20;81.00;;;;;;5072180;28;20384;-63
2021/04/07 05:11:00;;;;;;;1.65;1.08;;;4.20;81.00;;;;;;5071287;28;20107;-63
2021/04/07 05:13:28;;;;;;;1.38;1.15;;;4.20;81.10;;;;;;5063182;28;20037;-63
2021/04/07 05:15:54;;;;;;;2.92;0.80;;;4.20;81.10;;;;;;5067178;28;20388;-62
2021/04/07 05:18:21;;;;;;;0.70;0.70;;;4.20;81.10;;;;;;5053024;28;20036;-63
2021/04/07 05:20:47;;;;;;;1.40;0.90;;;4.20;81.00;;;;;;5056187;28;20029;-63
2021/04/07 05:23:13;;;;;;;0.68;0.68;;;4.30;81.00;;;;;;5071252;28;20038;-62
2021/04/07 05:25:38;;;;;;;3.60;0.80;;;4.30;81.10;;;;;;5070586;28;20024;-62
2021/04/07 05:28:06;;;;;;;0.82;0.82;;;4.30;81.00;;;;;;5071479;28;20060;-63
2021/04/07 05:33:19;;;;;;;0.70;0.70;;;4.30;80.90;;;;;;5070479;28;20041;-63
2021/04/07 05:35:44;;;;;;;1.60;0.98;;;4.40;80.80;;;;;;5068370;28;20032;-63
2021/04/07 05:38:10;;;;;;;2.38;0.60;;;4.40;80.70;;;;;;5050584;28;20032;-63
2021/04/07 05:40:36;;;;;;;0.50;0.50;;;4.40;80.70;;;;;;5066903;28;20116;-63
2021/04/07 05:43:04;;;;;;;1.20;0.82;;;4.40;80.60;;;;;;5056123;28;20032;-63
2021/04/07 05:45:31;;;;;;;0.82;0.82;;;4.50;80.60;;;;;;5053157;28;20536;-63
2021/04/07 05:47:56;;;;;;;0.80;0.70;;;4.50;80.50;;;;;;5059744;28;20380;-63
2021/04/07 05:50:22;;;;;;;0.50;0.50;;;4.40;80.40;;;;;;5061894;28;20047;-63
2021/04/07 05:52:51;;;;;;;0.77;0.77;;;4.50;80.40;;;;;;5054449;28;20029;-63
2021/04/07 05:55:21;;;;;;;0.80;0.80;;;4.50;80.40;;;;;;5061990;28;20650;-63
2021/04/07 05:58:00;;;;;;;0.50;0.50;;;4.50;80.30;;;;;;5057459;28;20031;-63
2021/04/07 06:00:27;;;;;;;0.60;0.60;;;4.50;80.40;;;;;;5057324;28;20033;-65
2021/04/07 06:02:57;;;;;;;0.50;0.50;;;4.50;80.30;;;;;;5056131;28;20483;-66
2021/04/07 06:05:24;;;;;;;0.75;0.75;;;4.50;80.30;;;;;;5062017;28;20037;-63
2021/04/07 06:07:50;;;;;;;0.57;0.57;;;4.60;80.40;;;;;;5058552;28;20059;-63
2021/04/07 06:10:16;;;;;;;1.80;1.67;;;4.60;80.30;;;;;;5040347;28;20028;-63
2021/04/07 06:12:42;;;;;;;0.50;0.50;;;4.60;80.30;;;;;;5057110;28;20515;-63
2021/04/07 06:15:10;;;;;;;0.77;0.77;;;4.60;80.20;;;;;;5059475;28;20025;-63
2021/04/07 06:17:37;;;;;;;1.08;0.68;;;4.70;80.20;;;;;;5059010;28;20484;-63
2021/04/07 06:20:06;;;;;;;0.82;0.82;;;4.70;80.10;;;;;;5057592;28;20802;-63
2021/04/07 06:22:32;;;;;;;5.88;1.65;;;4.70;80.10;;;;;;5070518;28;20032;-64
2021/04/07 06:24:57;;;;;;;1.85;1.05;;;4.80;80.00;;;;;;5056812;28;20490;-63
2021/04/07 06:27:23;;;;;;;2.05;0.93;;;4.70;80.00;;;;;;5057104;28;20490;-64
2021/04/07 06:29:49;;;;;;;0.90;0.60;;;4.80;80.00;;;;;;5060558;28;20047;-64
2021/04/07 06:32:14;;;;;;;0.60;0.60;;;4.80;80.00;;;;;;5060407;28;20032;-64
2021/04/07 06:34:40;;;;;;;2.55;1.05;;;4.70;80.00;;;;;;5072522;28;20040;-64
2021/04/07 06:37:06;;;;;;;2.15;1.92;;;4.80;80.10;;;;;;5074361;28;20067;-64
2021/04/07 06:39:31;;;;;;;0.60;0.60;;;4.80;80.00;;;;;;5068253;28;20037;-64
2021/04/07 06:42:00;;;;;;;1.08;1.00;;;4.80;79.90;;;;;;5072781;28;20025;-64
2021/04/07 06:44:26;;;;;;;0.75;0.63;;;4.90;80.00;;;;;;5073933;28;20032;-64
2021/04/07 06:46:55;;;;;;;4.05;1.05;;;4.90;79.90;;;;;;5074283;28;20058;-64
2021/04/07 06:49:23;;;;;;;4.95;0.95;;;4.90;80.00;;;;;;5073332;28;20458;-64
2021/04/07 06:51:52;;;;;;;3.75;1.58;;;4.90;79.90;;;;;;5073969;28;20048;-64
2021/04/07 06:54:21;;;;;;;0.52;0.52;;;5.00;80.50;;;;;;5074290;28;20109;-64
2021/04/07 06:56:49;;;;;;;0.50;0.50;;;5.00;79.80;;;;;;5054559;28;20111;-64
2021/04/07 06:59:15;;;;;;;0.90;0.90;;;5.00;79.60;;;;;;5072981;28;20081;-64
2021/04/07 07:01:43;;;;;;;0.50;0.50;;;5.00;79.60;;;;;;5073702;28;20392;-64
2021/04/07 07:04:09;;;;;;;0.40;0.40;;;5.10;79.60;;;;;;5073369;28;20474;-64
2021/04/07 07:06:35;;;;;;;0.77;0.77;;;5.10;79.60;;;;;;5074080;28;20032;-64
2021/04/07 07:09:19;;;;;;;1.33;0.88;;;5.10;79.60;;;;;;5073070;28;20484;-64
2021/04/07 07:11:45;;;;;;;;;;;5.10;79.60;;;;;;5067961;28;20380;-64
2021/04/07 07:14:13;;;;;;;9.57;1.00;;;5.10;79.60;;;;;;5073603;28;19923;-64
2021/04/07 07:16:47;;;;;;;0.40;0.40;;;5.20;79.70;;;;;;5073131;28;20020;-64
2021/04/07 07:19:30;;;;;;;0.60;0.60;;;5.20;79.90;;;;;;5073729;28;20055;-64
2021/04/07 07:22:01;;;;;;;3.13;0.80;;;5.10;80.10;;;;;;5067129;28;20037;-64
2021/04/07 07:24:32;;;;;;;4.38;1.48;;;5.10;80.30;;;;;;5072821;28;20039;-64
2021/04/07 07:26:59;;;;;;;0.50;0.50;;;5.20;80.50;;;;;;5073361;28;20029;-64
2021/04/07 07:29:27;;;;;;;2.38;0.93;;;5.20;80.60;;;;;;5073536;28;20372;-64
2021/04/07 07:32:07;;;;;;;0.40;0.40;;;5.20;80.60;;;;;;5070122;28;20110;-64
2021/04/07 07:34:34;;;;;;;6.22;0.80;;;5.20;80.60;;;;;;5063985;28;20036;-64
2021/04/07 07:37:01;;;;;;;3.38;1.27;;;5.30;80.60;;;;;;5073287;28;20083;-62
2021/04/07 07:39:33;;;;;;;9.70;1.33;;;5.40;80.60;;;;;;5073020;28;20032;-62
2021/04/07 07:42:06;;;;;;;9.95;1.33;;;5.50;80.60;;;;;;5073302;28;20157;-62
2021/04/07 07:44:34;;;;;;;17.25;2.55;;;5.50;80.60;;;;;;5072497;28;20078;-62
2021/04/07 07:47:04;;;;;;;16.23;2.35;;;5.60;81.00;;;;;;5073076;28;20440;-62
2021/04/07 07:49:30;;;;;;;2.50;0.90;;;5.60;81.00;;;;;;5073205;28;20036;-62
2021/04/07 07:51:56;;;;;;;11.85;2.35;;;5.70;81.60;;;;;;5072195;28;20052;-62
2021/04/07 07:54:24;;;;;;;9.50;1.70;;;5.80;82.00;;;;;;5072854;28;20437;-62
2021/04/07 07:56:52;;;;;;;2.33;1.25;;;5.80;82.80;;;;;;5073069;28;20377;-62
2021/04/07 07:59:28;;;;;;;9.52;1.25;;;5.80;82.60;;;;;;5072218;28;20119;-62
2021/04/07 08:01:55;;;;;;;4.93;1.60;;;5.80;82.10;;;;;;5072950;28;20040;-64
2021/04/07 08:04:21;;;;;;;2.72;0.80;;;5.80;82.10;;;;;;5072655;28;20024;-62
2021/04/07 08:06:46;;;;;;;9.15;1.45;;;5.80;82.40;;;;;;5072302;28;20206;-62
2021/04/07 08:09:12;;;;;;;2.50;1.02;;;5.80;83.30;;;;;;5071327;28;20036;-62
2021/04/07 08:11:43;;;;;;;2.00;0.65;;;5.80;84.00;;;;;;5071100;28;20101;-62
2021/04/07 08:14:17;;;;;;;2.70;1.38;;;5.90;83.50;;;;;;5072133;28;20437;-62
2021/04/07 08:16:44;;;;;;;2.40;0.65;;;5.90;83.00;;;;;;5072709;28;20037;-62
2021/04/07 08:19:11;;;;;;;2.80;0.90;;;6.00;82.70;;;;;;5072763;28;20056;-62
2021/04/07 08:21:42;;;;;;;0.40;0.40;;;6.10;82.20;;;;;;5072115;28;20032;-62
2021/04/07 08:24:10;;;;;;;1.67;0.80;;;6.20;81.80;;;;;;5072902;28;20029;-62
2021/04/07 08:26:38;;;;;;;6.00;1.83;;;6.20;81.30;;;;;;5071930;28;20016;-62
2021/04/07 08:29:07;;;;;;;28.83;3.45;;;6.30;81.60;;;;;;5072536;28;20124;-62
2021/04/07 08:31:35;;;;;;;6.63;3.13;;;6.30;82.90;;;;;;5058602;28;20163;-62
2021/04/07 08:34:06;;;;;;;3.92;1.38;;;6.30;82.40;;;;;;5058232;28;20368;-62
2021/04/07 08:36:32;;;;;;;5.75;1.85;;;6.30;82.30;;;;;;5072557;28;20033;-62
2021/04/07 08:39:00;;;;;;;5.68;1.58;;;6.30;82.40;;;;;;5072514;28;20016;-62
2021/04/07 08:41:26;;;;;;;4.82;1.25;;;6.40;82.20;;;;;;5071867;28;20029;-62
2021/04/07 08:43:53;;;;;;;4.65;1.08;;;6.50;82.00;;;;;;5072212;28;20035;-62
2021/04/07 08:46:27;;;;;;;6.22;1.48;;;6.60;82.00;;;;;;5072606;28;20079;-62
2021/04/07 08:48:54;;;;;;;2.85;1.30;;;6.70;82.00;;;;;;5071619;28;20075;-62
2021/04/07 08:51:25;;;;;;;12.48;1.55;;;6.70;81.70;;;;;;5074249;28;20127;-62
2021/04/07 08:53:56;;;;;;;15.95;3.25;;;6.80;81.80;;;;;;5072372;28;20109;-62
2021/04/07 08:56:29;;;;;;;17.58;2.78;;;6.90;82.80;;;;;;5071711;28;20031;-62
2021/04/07 08:58:57;;;;;;;12.43;2.80;;;6.90;83.80;;;;;;5072438;28;20036;-62
2021/04/07 09:01:35;;;;;;;9.10;2.00;;;6.90;82.90;;;;;;5072263;28;20495;-62
2021/04/07 09:04:09;;;;;;;8.15;1.40;;;6.80;82.30;;;;;;5072256;28;20108;-62
2021/04/07 09:06:39;;;;;;;9.27;2.50;;;6.80;82.20;;;;;;5063066;28;20388;-62
2021/04/07 09:09:07;;;;;;;9.68;2.55;;;6.80;82.20;;;;;;5066399;28;20040;-62
2021/04/07 09:11:35;;;;;;;14.48;2.50;;;6.80;82.80;;;;;;5072320;28;20058;-62
2021/04/07 09:14:05;;;;;;;9.57;2.20;;;6.80;82.80;;;;;;5072297;28;20043;-62
2021/04/07 09:16:41;;;;;;;13.23;2.63;;;6.80;83.00;;;;;;5071516;28;20089;-62
2021/04/07 09:19:14;;;;;;;10.10;2.90;;;6.80;83.20;;;;;;5072059;28;20487;-62
2021/04/07 09:21:51;;;;;;;14.25;2.67;;;6.90;83.50;;;;;;5059413;28;20454;-62
2021/04/07 09:24:19;;;;;;;10.07;1.75;;;6.90;83.20;;;;;;5075278;28;20487;-62
2021/04/07 09:26:48;;;;;;;11.40;2.15;;;7.00;82.80;;;;;;5075875;28;20040;-62
2021/04/07 09:29:16;;;;;;;3.53;1.50;;;7.10;82.60;;;;;;5075841;28;20040;-62
2021/04/07 09:31:44;;;;;;;6.25;0.98;;;7.10;82.30;;;;;;5074898;28;20033;-62
2021/04/07 09:34:14;;;;;;;9.52;1.92;;;7.20;82.10;;;;;;5075687;28;20029;-62
2021/04/07 09:36:42;;;;;;;16.95;2.17;;;7.20;81.90;;;;;;5074843;28;20055;-64
2021/04/07 09:39:13;;;;;;;17.67;3.38;;;7.30;81.90;;;;;;5075701;28;20032;-62
2021/04/07 09:41:42;;;;;;;33.30;5.43;;;7.30;82.50;;;;;;5075673;28;20472;-62
2021/04/07 09:44:09;;;;;;;20.77;3.30;;;7.30;83.20;;;;;;5074744;28;20032;-62
2021/04/07 09:46:35;;;;;;;24.27;3.45;;;7.30;84.10;;;;;;5075483;28;20093;-62
2021/04/07 09:49:07;;;;;;;17.70;4.32;;;7.30;84.00;;;;;;5075224;28;20047;-62
2021/04/07 09:51:44;;;;;;;11.80;3.25;;;7.30;84.30;;;;;;5074667;28;20045;-62
2021/04/07 09:54:16;;;;;;;24.65;3.40;;;7.30;84.50;;;;;;5075285;28;20033;-62
2021/04/07 09:57:20;;;;;;;30.45;4.68;;;7.30;84.60;;;;;;5075270;28;20020;-62
2021/04/07 09:59:52;;;;;;;10.75;3.03;;;7.30;84.10;;;;;;5057094;28;20044;-62
2021/04/07 10:02:25;;;;;;;18.65;3.35;;;7.30;84.60;;;;;;5074089;28;20037;-61
2021/04/07 10:04:53;;;;;;;28.48;3.85;;;7.30;84.80;;;;;;5044760;28;20162;-61
2021/04/07 10:07:23;;;;;;;11.52;2.88;;;7.40;84.10;;;;;;5074990;28;20035;-62
2021/04/07 10:09:57;;;;;;;21.48;2.40;;;7.40;84.50;;;;;;5074637;28;20437;-62
2021/04/07 10:12:23;;;;;;;;;;;7.40;84.70;;;;;;5074499;28;20126;-65
2021/04/07 10:14:54;;;;;;;14.60;2.92;;;7.40;84.00;;;;;;5060772;28;20275;-64
2021/04/07 10:17:23;;;;;;;13.02;3.88;;;7.40;84.10;;;;;;5074648;28;20063;-62
2021/04/07 10:19:49;;;;;;;18.83;4.03;;;7.50;84.20;;;;;;5073861;28;20123;-63
2021/04/07 10:22:27;;;;;;;21.58;3.40;;;7.50;83.80;;;;;;5074658;28;20119;-62
2021/04/07 10:25:00;;;;;;;23.73;4.07;;;7.50;83.60;;;;;;5074729;28;20040;-62
2021/04/07 10:27:26;;;;;;;11.63;3.05;;;7.60;84.00;;;;;;5074240;28;20032;-62
2021/04/07 10:30:21;;;;;;;27.25;4.60;;;7.70;84.20;;;;;;5056321;28;20044;-69
2021/04/07 10:32:54;;;;;;;14.75;3.28;;;7.70;84.30;;;;;;5069137;28;20418;-61
2021/04/07 10:35:27;;;;;;;11.73;1.90;;;7.70;81.70;;;;;;5074352;28;20486;-62
2021/04/07 10:37:53;;;;;;;12.13;2.80;;;7.80;82.70;;;;;;5074661;28;20032;-61
2021/04/07 10:40:21;;;;;;;17.35;2.88;;;7.90;82.80;;;;;;5064335;28;20035;-62
2021/04/07 10:42:47;;;;;;;15.20;2.08;;;7.90;79.80;;;;;;5074516;28;20463;-64
2021/04/07 10:45:15;;;;;;;13.57;3.10;;;7.90;81.10;;;;;;5074311;28;20048;-62
2021/04/07 10:47:41;;;;;;;10.02;2.30;;;7.90;81.60;;;;;;5073728;28;20075;-62
2021/04/07 10:50:09;;;;;;;26.92;3.58;;;8.00;82.10;;;;;;5074820;28;20056;-62
2021/04/07 10:52:37;;;;;;;20.55;2.50;;;8.00;81.90;;;;;;5075082;28;20071;-62
2021/04/07 10:55:07;;;;;;;21.13;3.65;;;8.00;81.10;;;;;;5073160;28;20031;-62
2021/04/07 10:57:47;;;;;;;24.35;4.93;;;8.00;81.70;;;;;;5074567;28;20081;-62
2021/04/07 11:00:30;;;;;;;15.60;3.72;;;8.10;80.20;;;;;;5059994;28;20037;-62
2021/04/07 11:02:56;;;;;;;16.05;2.13;;;8.10;78.60;;;;;;5055860;28;20056;-61
2021/04/07 11:05:24;;;;;;;7.18;1.92;;;8.10;79.90;;;;;;5060515;28;20494;-61
2021/04/07 11:08:19;;;;;;;15.32;3.28;;;8.10;79.40;;;;;;5069039;28;20036;-61
2021/04/07 11:10:50;;;;;;;8.38;2.47;;;8.20;79.30;;;;;;5054077;28;20059;-61
2021/04/07 11:13:20;;;;;;;12.07;2.15;;;8.20;77.70;;;;;;5073477;28;20020;-62
2021/04/07 11:15:46;;;;;;;6.60;1.38;;;8.20;76.50;;;;;;5064431;28;20021;-61
2021/04/07 11:18:12;;;;;;;10.52;1.63;;;8.30;77.30;;;;;;5059057;28;20520;-61
2021/04/07 11:20:40;;;;;;;4.32;1.20;;;8.30;78.20;;;;;;5063996;28;20028;-61
2021/04/07 11:23:06;;;;;;;16.42;3.50;;;8.30;80.20;;;;;;5065604;28;20399;-61
2021/04/07 11:25:32;;;;;;;9.00;2.42;;;8.30;77.90;;;;;;5073112;28;20073;-61
2021/04/07 11:27:59;;;;;;;13.48;2.55;;;8.40;79.30;;;;;;5073181;28;20387;-60
2021/04/07 11:30:30;;;;;;;20.02;3.38;;;8.40;80.10;;;;;;5054139;28;20391;-61
2021/04/07 11:33:01;;;;;;;11.15;2.35;;;8.40;76.80;;;;;;5073317;28;20028;-61
2021/04/07 11:35:53;;;;;;;8.43;1.75;;;8.50;78.20;;;;;;5073049;28;20039;-63
2021/04/07 11:38:17;;;;;;;5.00;1.63;;;8.50;78.80;;;;;;5071575;28;20103;-60
2021/04/07 11:41:47;;;;;;;13.63;2.85;;;8.50;80.70;;;;;;5072799;28;20392;-60
2021/04/07 11:43:36;;;;;;;14.63;2.13;;;8.60;79.10;;;;;;5071805;28;20407;-61
2021/04/07 11:46:01;;;;;;;10.48;2.10;;;8.60;77.60;;;;;;5071942;28;20157;-60
2021/04/07 11:48:27;;;;;;;5.68;2.25;;;8.60;77.90;;;;;;5073045;28;20119;-60
2021/04/07 11:50:53;;;;;;;5.35;1.80;;;8.60;78.30;;;;;;5074087;28;20053;-60
2021/04/07 11:53:18;;;;;;;12.65;2.00;;;8.70;79.50;;;;;;5073113;28;20024;-61
2021/04/07 11:55:44;;;;;;;12.07;2.78;;;8.70;77.60;;;;;;5072993;28;20039;-61
2021/04/07 11:58:10;;;;;;;15.20;2.05;;;8.80;76.50;;;;;;5072571;28;20103;-60
2021/04/07 12:00:36;;;;;;;10.23;2.40;;;8.80;75.60;;;;;;5072708;28;20120;-60
2021/04/07 12:03:02;;;;;;;10.35;2.20;;;8.80;74.40;;;;;;5073048;28;20025;-60
2021/04/07 12:05:31;;;;;;;9.80;1.83;;;8.90;76.20;;;;;;5072123;28;20044;-60
2021/04/07 12:07:56;;;;;;;9.48;2.00;;;8.90;76.40;;;;;;5072665;28;20033;-61
2021/04/07 12:10:23;;;;;;;8.20;2.30;;;8.90;76.10;;;;;;5071497;28;20043;-61
2021/04/07 12:12:52;;;;;;;11.57;2.40;;;8.90;74.60;;;;;;5071945;28;20035;-63
2021/04/07 12:15:18;;;;;;;13.10;2.30;;;8.90;74.40;;;;;;5072823;28;20031;-60
2021/04/07 12:17:44;;;;;;;14.50;2.60;;;8.90;74.40;;;;;;5072237;28;20415;-65
2021/04/07 12:20:10;;;;;;;6.50;1.83;;;9.00;74.50;;;;;;5060015;28;20032;-60
2021/04/07 12:22:37;;;;;;;24.95;3.53;;;9.10;74.60;;;;;;5069309;28;20063;-60
2021/04/07 12:25:04;;;;;;;16.42;2.65;;;9.00;73.30;;;;;;5068138;28;20075;-60
2021/04/07 12:27:29;;;;;;;11.43;2.03;;;9.10;74.10;;;;;;5053420;28;20041;-60
2021/04/07 12:29:55;;;;;;;9.80;1.98;;;9.10;73.50;;;;;;5060642;28;20051;-63
2021/04/07 12:32:20;;;;;;;16.98;2.90;;;9.10;74.00;;;;;;5069946;28;20051;-64
2021/04/07 12:34:47;;;;;;;12.10;3.63;;;9.20;72.60;;;;;;5070689;28;20033;-61
2021/04/07 12:37:12;;;;;;;1.95;0.80;;;9.20;73.40;;;;;;5071220;28;20078;-61
2021/04/07 12:39:39;;;;;;;19.55;3.63;;;9.20;77.10;;;;;;5070716;28;20032;-61
2021/04/07 12:42:16;;;;;;;12.93;3.08;;;9.20;73.90;;;;;;5071380;28;20036;-66
2021/04/07 12:44:41;;;;;;;10.73;2.83;;;9.30;74.00;;;;;;5051561;28;20119;-61
2021/04/07 12:47:08;;;;;;;7.88;1.63;;;9.20;72.30;;;;;;5068197;28;20494;-61
2021/04/07 12:49:33;;;;;;;1.60;0.80;;;9.20;75.70;;;;;;5067606;28;20032;-61
2021/04/07 12:51:59;;;;;;;2.75;1.10;;;9.30;77.70;;;;;;5071620;28;20076;-61
2021/04/07 12:54:25;;;;;;;6.15;1.92;;;9.30;78.10;;;;;;5079455;28;20035;-62
2021/04/07 12:56:50;;;;;;;8.00;2.22;;;9.30;78.40;;;;;;5091363;28;20043;-61
2021/04/07 12:59:16;;;;;;;9.70;2.17;;;9.30;75.60;;;;;;5095790;28;20394;-60
2021/04/07 13:01:47;;;;;;;19.10;2.78;;;9.30;75.80;;;;;;5095378;28;20055;-61